Adrian, Illinois
Current Conditions -  °F | °C
As of 6:55 AM on Friday 19 Dec 2014 (Local Time) from KFSW Reporting Station
Overcast Overcast  
Wind Chill: 23°   Ceiling: 6000
Heat Index: 28°   Visibility: 7mi
Dew Point: 27°   Wind: 5mph
Humidity: 93%   Direction: 70°ENE
Pressure: 30.3"   Gusts: NA
Location:  40.52°N, 91.17°W
Report Text: KFSW 191255Z AUTO 07004KT 7SM OVC060 M02/M03 A3030 RMK AO2
Loading
Personal Weather Stations






























Interactive Weather Map New forecast layout! Learn more

10-Day Weather Forecast

Advertisements
Track Severe Weather on mobile